createdAt,value
2018-07-23T00:00:29.431Z,82.09
2018-07-23T00:01:28.296Z,82.38
2018-07-23T00:02:29.710Z,82.48
2018-07-23T00:03:28.258Z,83.34
2018-07-23T00:04:28.286Z,82.76
2018-07-23T00:05:29.320Z,82.86
2018-07-23T00:06:28.998Z,83.15
2018-07-23T00:07:29.259Z,82.48
2018-07-23T00:08:29.258Z,83.34
2018-07-23T00:09:29.378Z,82.67
2018-07-23T00:10:28.931Z,82.86
2018-07-23T00:11:29.012Z,82.86
2018-07-23T00:12:28.277Z,83.44
2018-07-23T00:13:29.004Z,83.63
2018-07-23T00:14:29.264Z,83.25
2018-07-23T00:15:29.402Z,83.53
2018-07-23T00:16:31.723Z,83.34
2018-07-23T00:17:29.355Z,83.34
2018-07-23T00:18:29.781Z,82.86
2018-07-23T00:19:29.384Z,83.53
2018-07-23T00:20:29.313Z,84.46
2018-07-23T00:21:29.725Z,84.41
2018-07-23T00:22:28.385Z,84.79
2018-07-23T00:23:29.507Z,84.31
2018-07-23T00:24:29.384Z,83.63
2018-07-23T00:25:29.630Z,83.92
2018-07-23T00:26:29.903Z,84.01
2018-07-23T00:27:31.135Z,84.41
2018-07-23T00:28:29.776Z,83.78
2018-07-23T00:29:29.247Z,84.36
2018-07-23T00:30:29.660Z,84.84
2018-07-23T00:31:35.769Z,84.55
2018-07-23T00:32:29.335Z,84.84
2018-07-23T00:33:29.031Z,84.94
2018-07-23T00:34:31.029Z,84.55
2018-07-23T00:35:29.093Z,84.46
2018-07-23T00:36:28.357Z,84.75
2018-07-23T00:37:29.769Z,84.65
2018-07-23T00:38:28.293Z,84.65
2018-07-23T00:39:29.049Z,84.84
2018-07-23T00:40:28.283Z,84.46
2018-07-23T00:41:29.505Z,85.52
2018-07-23T00:42:29.809Z,85.23
2018-07-23T00:43:29.794Z,86.19
2018-07-23T00:44:28.366Z,85.42
2018-07-23T00:45:29.732Z,85.23
2018-07-23T00:46:28.258Z,85.33
2018-07-23T00:47:29.505Z,84.75
2018-07-23T00:48:28.431Z,86.15
2018-07-23T00:49:28.312Z,86.10
2018-07-23T00:50:29.837Z,86.00
2018-07-23T00:51:29.004Z,85.52
2018-07-23T00:52:28.350Z,85.61
2018-07-23T00:53:29.868Z,85.86
2018-07-23T00:54:28.287Z,85.67
2018-07-23T00:55:28.283Z,86.10
2018-07-23T00:56:28.294Z,86.19
2018-07-23T00:57:29.811Z,85.61
2018-07-23T00:58:29.738Z,86.10
2018-07-23T00:59:28.308Z,85.91
2018-07-23T01:00:29.715Z,85.77
2018-07-23T01:01:28.424Z,85.67
2018-07-23T01:02:29.709Z,85.96
2018-07-23T01:03:30.330Z,86.00
2018-07-23T01:04:29.044Z,86.48
2018-07-23T01:05:29.777Z,86.82
2018-07-23T01:06:28.381Z,86.00
2018-07-23T01:07:31.925Z,86.82
2018-07-23T01:08:29.016Z,87.02
2018-07-23T01:09:29.390Z,87.40
2018-07-23T01:10:29.395Z,87.30
2018-07-23T01:11:29.382Z,87.02
2018-07-23T01:12:29.797Z,86.63
2018-07-23T01:13:28.315Z,86.73
2018-07-23T01:14:29.441Z,86.92
2018-07-23T01:15:29.374Z,87.02
2018-07-23T01:16:29.467Z,86.82
2018-07-23T01:17:29.429Z,87.30
2018-07-23T01:18:29.407Z,87.40
2018-07-23T01:19:30.015Z,87.50
2018-07-23T01:20:29.456Z,87.40
2018-07-23T01:21:29.453Z,87.30
2018-07-23T01:22:31.470Z,87.70
2018-07-23T01:23:29.037Z,87.98
2018-07-23T01:24:29.474Z,87.98
2018-07-23T01:25:31.395Z,87.98
2018-07-23T01:26:29.861Z,88.08
2018-07-23T01:27:28.332Z,87.98
2018-07-23T01:28:29.342Z,87.70
2018-07-23T01:29:30.255Z,87.88
2018-07-23T01:30:29.058Z,87.12
2018-07-23T01:31:29.434Z,88.08
2018-07-23T01:32:28.375Z,88.08
2018-07-23T01:33:29.346Z,87.21
2018-07-23T01:34:29.436Z,88.27
2018-07-23T01:35:29.433Z,88.08
2018-07-23T01:36:29.792Z,87.60
2018-07-23T01:37:29.168Z,87.40
2018-07-23T01:38:29.385Z,87.40
2018-07-23T01:39:29.345Z,87.60
2018-07-23T01:40:29.435Z,88.46
2018-07-23T01:41:29.092Z,88.46
2018-07-23T01:42:29.473Z,88.75
2018-07-23T01:43:29.425Z,88.65
2018-07-23T01:44:29.405Z,88.85
2018-07-23T01:45:30.419Z,88.17
2018-07-23T01:46:29.736Z,88.17
2018-07-23T01:47:29.402Z,88.08
2018-07-23T01:48:29.433Z,87.98
2018-07-23T01:49:29.475Z,88.27
2018-07-23T01:50:29.444Z,88.85
2018-07-23T01:51:29.451Z,89.14
2018-07-23T01:52:29.079Z,88.95
2018-07-23T01:53:29.424Z,89.04
2018-07-23T01:54:29.463Z,88.95
2018-07-23T01:55:31.449Z,88.95
2018-07-23T01:56:29.874Z,88.85
2018-07-23T01:57:29.040Z,88.95
2018-07-23T01:58:31.938Z,88.56
2018-07-23T01:59:29.381Z,89.04
2018-07-23T02:00:29.781Z,89.23
2018-07-23T02:01:29.377Z,88.75
2018-07-23T02:02:29.440Z,88.95
2018-07-23T02:03:29.025Z,88.75
2018-07-23T02:04:29.379Z,89.14
2018-07-23T02:05:31.404Z,88.85
2018-07-23T02:06:28.327Z,88.75
2018-07-23T02:07:29.421Z,88.85
2018-07-23T02:08:29.384Z,88.85
2018-07-23T02:09:29.384Z,88.75
2018-07-23T02:10:29.769Z,89.14
2018-07-23T02:11:29.335Z,88.75
2018-07-23T02:12:30.030Z,89.53
2018-07-23T02:13:28.976Z,89.53
2018-07-23T02:14:29.065Z,89.33
2018-07-23T02:15:29.076Z,89.91
2018-07-23T02:16:29.214Z,89.43
2018-07-23T02:17:29.500Z,90.20
2018-07-23T02:18:28.454Z,90.20
2018-07-23T02:19:29.453Z,89.23
2018-07-23T02:20:29.414Z,90.00
2018-07-23T02:21:31.411Z,89.81
2018-07-23T02:22:29.558Z,90.00
2018-07-23T02:23:29.406Z,90.20
2018-07-23T02:24:31.435Z,90.39
2018-07-23T02:25:29.109Z,90.00
2018-07-23T02:26:29.443Z,90.39
2018-07-23T02:27:29.426Z,89.62
2018-07-23T02:28:29.737Z,90.10
2018-07-23T02:29:31.450Z,90.34
2018-07-23T02:30:31.218Z,91.41
2018-07-23T02:31:29.804Z,92.41
2018-07-23T02:32:29.778Z,92.47
2018-07-23T02:33:30.351Z,91.69
2018-07-23T02:34:29.496Z,91.45
2018-07-23T02:35:29.976Z,91.69
2018-07-23T02:36:29.088Z,92.18
2018-07-23T02:37:29.461Z,91.41
2018-07-23T02:38:29.469Z,90.78
2018-07-23T02:39:29.548Z,91.26
2018-07-23T02:40:29.489Z,91.26
2018-07-23T02:41:30.488Z,90.83
2018-07-23T02:42:28.328Z,90.88
2018-07-23T02:43:29.836Z,91.21
2018-07-23T02:44:29.393Z,91.69
2018-07-23T02:45:31.335Z,90.83
2018-07-23T02:46:29.407Z,91.21
2018-07-23T02:47:29.031Z,90.92
2018-07-23T02:48:29.414Z,90.64
2018-07-23T02:49:29.409Z,91.31
2018-07-23T02:50:29.413Z,90.73
2018-07-23T02:51:29.350Z,91.50
2018-07-23T02:52:31.346Z,91.60
2018-07-23T02:53:31.938Z,91.60
2018-07-23T02:54:29.526Z,92.18
2018-07-23T02:55:29.555Z,91.41
2018-07-23T02:56:29.418Z,91.89
2018-07-23T02:57:31.328Z,92.37
2018-07-23T02:58:29.075Z,92.08
2018-07-23T02:59:31.307Z,91.69
2018-07-23T03:00:29.426Z,91.41
2018-07-23T03:01:29.469Z,91.50
2018-07-23T03:02:29.504Z,92.18
2018-07-23T03:03:29.501Z,91.50
2018-07-23T03:04:29.650Z,92.27
2018-07-23T03:05:31.435Z,92.47
2018-07-23T03:06:29.815Z,92.66
2018-07-23T03:07:29.406Z,92.94
2018-07-23T03:08:31.916Z,93.04
2018-07-23T03:09:29.105Z,93.33
2018-07-23T03:10:30.372Z,93.33
2018-07-23T03:11:30.484Z,93.33
2018-07-23T03:12:28.336Z,93.04
2018-07-23T03:13:28.409Z,93.14
2018-07-23T03:14:29.476Z,93.04
2018-07-23T03:15:29.482Z,92.76
2018-07-23T03:16:29.379Z,92.61
2018-07-23T03:17:29.379Z,93.57
2018-07-23T03:18:28.566Z,93.19
2018-07-23T03:19:29.343Z,93.87
2018-07-23T03:20:29.027Z,94.44
2018-07-23T03:21:29.756Z,94.54
2018-07-23T03:22:29.434Z,93.87
2018-07-23T03:23:31.749Z,93.67
2018-07-23T03:24:29.358Z,93.77
2018-07-23T03:25:29.102Z,94.25
2018-07-23T03:26:29.374Z,94.15
2018-07-23T03:27:29.918Z,94.44
2018-07-23T03:28:30.273Z,95.12
2018-07-23T03:29:30.493Z,95.31
2018-07-23T03:30:30.069Z,95.60
2018-07-23T03:31:29.080Z,95.69
2018-07-23T03:32:29.755Z,94.92
2018-07-23T03:33:29.599Z,95.40
2018-07-23T03:34:28.342Z,95.60
2018-07-23T03:35:29.470Z,95.02
2018-07-23T03:36:29.818Z,95.50
2018-07-23T03:37:31.451Z,95.94
2018-07-23T03:38:28.492Z,95.74
2018-07-23T03:39:29.473Z,96.61
2018-07-23T03:40:31.465Z,96.70
2018-07-23T03:41:30.052Z,96.51
2018-07-23T03:42:29.115Z,96.89
2018-07-23T03:43:30.080Z,96.70
2018-07-23T03:44:29.487Z,96.32
2018-07-23T03:45:30.076Z,97.04
2018-07-23T03:46:29.493Z,96.61
2018-07-23T03:47:29.154Z,96.61
2018-07-23T03:48:29.836Z,97.57
2018-07-23T03:49:30.524Z,98.54
2018-07-23T03:50:31.476Z,97.96
2018-07-23T03:51:29.501Z,97.28
2018-07-23T03:52:35.764Z,98.44
2018-07-23T03:53:29.080Z,99.11
2018-07-23T03:54:29.719Z,98.92
2018-07-23T03:55:29.469Z,99.40
2018-07-23T03:56:29.821Z,99.49
2018-07-23T03:57:29.407Z,99.11
2018-07-23T03:58:30.068Z,99.21
2018-07-23T03:59:29.918Z,99.49
2018-07-23T04:00:29.870Z,99.78
2018-07-23T04:01:29.909Z,99.40
2018-07-23T04:02:29.939Z,99.99
2018-07-23T04:03:30.064Z,99.59
2018-07-23T04:04:29.078Z,99.88
2018-07-23T04:05:29.523Z,99.69
2018-07-23T04:06:29.900Z,98.54
2018-07-23T04:07:29.530Z,98.63
2018-07-23T04:08:29.846Z,99.40
2018-07-23T04:09:29.055Z,98.72
2018-07-23T04:10:28.402Z,99.59
2018-07-23T04:11:29.832Z,98.72
2018-07-23T04:12:29.076Z,98.63
2018-07-23T04:13:28.440Z,99.49
2018-07-23T04:14:30.121Z,99.99
2018-07-23T04:15:28.408Z,99.99
2018-07-23T04:16:29.139Z,99.99
2018-07-23T04:17:29.561Z,99.99
2018-07-23T04:18:28.377Z,99.99
2018-07-23T04:19:29.211Z,99.99
2018-07-23T04:20:29.610Z,99.99
2018-07-23T04:21:29.107Z,99.99
2018-07-23T04:22:29.898Z,99.99
2018-07-23T04:23:55.161Z,99.99
2018-07-23T04:24:30.109Z,99.99
2018-07-23T04:25:29.436Z,99.99
2018-07-23T04:26:30.580Z,99.99
2018-07-23T04:27:29.096Z,99.99
2018-07-23T04:28:29.476Z,99.99
2018-07-23T04:29:29.811Z,99.99
2018-07-23T04:30:29.442Z,99.99
2018-07-23T04:31:29.402Z,99.99
2018-07-23T04:32:29.453Z,99.99
2018-07-23T04:33:30.653Z,99.99
2018-07-23T04:34:29.482Z,99.99
2018-07-23T04:36:29.558Z,99.99
2018-07-23T04:37:31.105Z,99.99
2018-07-23T04:38:30.470Z,99.99
2018-07-23T04:39:29.442Z,99.99
2018-07-23T04:40:29.610Z,99.99
2018-07-23T04:41:29.489Z,99.99
2018-07-23T04:42:28.415Z,99.99
2018-07-23T04:43:29.730Z,99.99
2018-07-23T04:44:29.919Z,99.99
2018-07-23T04:45:29.773Z,99.99
2018-07-23T04:46:31.428Z,99.99
2018-07-23T04:47:29.492Z,99.99
2018-07-23T04:48:29.578Z,99.99
2018-07-23T04:49:29.848Z,99.99
2018-07-23T04:50:29.419Z,99.99
2018-07-23T04:51:29.509Z,99.99
2018-07-23T04:52:31.266Z,99.99
2018-07-23T04:53:29.402Z,99.99
2018-07-23T04:54:29.242Z,99.99
2018-07-23T04:55:29.519Z,99.99
2018-07-23T04:56:29.395Z,99.99
2018-07-23T04:57:29.512Z,99.99
2018-07-23T04:58:29.485Z,99.99
2018-07-23T04:59:29.052Z,99.99
2018-07-23T05:00:31.175Z,99.99
2018-07-23T05:01:29.557Z,99.99
2018-07-23T05:02:29.456Z,99.99
2018-07-23T05:04:29.798Z,99.99
2018-07-23T05:07:03.047Z,99.99
2018-07-23T05:08:03.144Z,99.99
2018-07-23T05:09:57.579Z,99.99
2018-07-23T05:10:59.206Z,99.99
2018-07-23T05:12:57.756Z,99.99
2018-07-23T05:13:51.105Z,99.99
2018-07-23T05:15:45.807Z,99.99
2018-07-23T05:16:47.354Z,99.99
2018-07-23T05:18:41.837Z,99.99
2018-07-23T05:19:41.664Z,99.99
2018-07-23T05:21:36.306Z,99.99
2018-07-23T05:22:38.135Z,99.99
2018-07-23T05:24:31.535Z,99.99
2018-07-23T05:25:32.364Z,99.99
2018-07-23T05:27:43.702Z,99.99
2018-07-23T05:28:27.490Z,99.99
2018-07-23T05:30:21.611Z,99.99
2018-07-23T05:31:23.490Z,99.99
2018-07-23T05:33:19.036Z,99.99
2018-07-23T05:35:29.705Z,99.99
2018-07-23T05:36:30.258Z,99.99
2018-07-23T05:38:59.150Z,99.99
2018-07-23T05:39:24.695Z,99.99
2018-07-23T05:41:22.789Z,99.99
2018-07-23T05:42:19.707Z,99.99
2018-07-23T05:45:53.747Z,99.99
2018-07-23T05:48:38.367Z,99.99
2018-07-23T05:50:50.042Z,99.99
2018-07-23T05:53:09.144Z,99.99
2018-07-23T05:54:07.707Z,99.99
2018-07-23T05:55:04.579Z,99.99
2018-07-23T05:56:04.542Z,99.99
2018-07-23T05:57:08.152Z,99.99
2018-07-23T05:58:05.704Z,99.99
2018-07-23T05:59:05.481Z,99.99
2018-07-23T06:00:05.707Z,99.99
2018-07-23T06:01:06.244Z,99.99
2018-07-23T06:02:05.650Z,99.99
2018-07-23T06:03:05.709Z,99.99
2018-07-23T06:04:41.459Z,99.88
2018-07-23T06:05:05.565Z,99.79
2018-07-23T06:06:05.498Z,98.63
2018-07-23T06:08:06.193Z,98.72
2018-07-23T06:09:05.666Z,99.59
2018-07-23T06:11:39.184Z,98.97
2018-07-23T06:12:39.841Z,98.63
2018-07-23T06:13:37.866Z,97.96
2018-07-23T06:14:39.496Z,97.86
2018-07-23T06:15:37.983Z,97.19
2018-07-23T06:16:39.563Z,96.70
2018-07-23T06:17:38.781Z,96.99
2018-07-23T06:18:38.588Z,98.05
2018-07-23T06:19:39.432Z,97.67
2018-07-23T06:22:11.470Z,97.28
2018-07-23T06:23:11.514Z,96.99
2018-07-23T06:25:06.049Z,96.08
2018-07-23T06:27:46.979Z,95.31
2018-07-23T06:29:56.360Z,94.92
2018-07-23T06:30:37.125Z,94.92
2018-07-23T06:32:32.081Z,95.31
2018-07-23T06:34:46.544Z,94.73
2018-07-23T06:38:36.229Z,94.15
2018-07-23T06:39:34.582Z,94.82
2018-07-23T06:41:32.702Z,94.15
2018-07-23T06:42:36.245Z,94.24
2018-07-23T06:43:45.392Z,93.19
2018-07-23T06:44:29.183Z,93.86
2018-07-23T06:45:30.605Z,93.57
2018-07-23T06:46:29.215Z,93.43
2018-07-23T06:47:57.243Z,93.52
2018-07-23T06:48:29.171Z,92.85
2018-07-23T06:49:36.230Z,92.27
2018-07-23T06:50:37.199Z,92.36
2018-07-23T06:51:43.960Z,91.88
2018-07-23T06:52:30.377Z,91.60
2018-07-23T06:53:30.213Z,91.78
2018-07-23T06:54:29.337Z,91.88
2018-07-23T06:55:30.699Z,91.40
2018-07-23T07:02:12.764Z,91.35
2018-07-23T07:02:40.045Z,90.96
2018-07-23T07:03:42.499Z,91.06
2018-07-23T07:04:38.076Z,91.06
2018-07-23T07:07:28.225Z,90.44
2018-07-23T07:08:27.641Z,89.90
2018-07-23T07:11:37.255Z,89.32
2018-07-23T07:12:38.869Z,89.90
2018-07-23T07:13:39.328Z,89.32
2018-07-23T07:17:51.490Z,88.93
2018-07-23T07:18:43.530Z,88.55
2018-07-23T07:21:02.419Z,88.93
2018-07-23T07:23:47.689Z,87.82
2018-07-23T07:24:10.103Z,87.49
2018-07-23T07:30:53.481Z,86.38
2018-07-23T07:31:48.392Z,85.80
2018-07-23T07:33:43.074Z,86.18
2018-07-23T07:34:42.687Z,85.41
2018-07-23T07:35:47.528Z,85.70
2018-07-23T07:36:41.618Z,85.22
2018-07-23T07:38:42.414Z,85.70
2018-07-23T07:42:33.721Z,85.70
2018-07-23T07:43:16.248Z,84.35
2018-07-23T07:45:35.640Z,82.03
2018-07-23T07:46:10.362Z,82.23
2018-07-23T07:47:12.135Z,81.74
2018-07-23T07:48:11.202Z,81.65
2018-07-23T07:49:12.289Z,81.65
2018-07-23T07:50:12.678Z,80.78
2018-07-23T07:51:10.769Z,79.14
2018-07-23T07:52:18.446Z,79.43
2018-07-23T07:54:43.669Z,79.17
2018-07-23T07:56:05.431Z,78.59
2018-07-23T07:57:04.281Z,78.79
2018-07-23T07:57:44.074Z,77.73
2018-07-23T07:58:48.273Z,78.11
2018-07-23T08:00:50.014Z,77.05
2018-07-23T08:06:40.470Z,74.54
2018-07-23T08:10:49.079Z,73.77
2018-07-23T08:13:19.547Z,74.54
2018-07-23T08:17:15.160Z,72.94
2018-07-23T08:18:07.570Z,72.06
2018-07-23T08:20:02.082Z,71.88
2018-07-23T08:22:35.637Z,70.81
2018-07-23T08:23:35.473Z,70.62
2018-07-23T08:27:09.145Z,69.56
2018-07-23T08:28:08.685Z,68.24
2018-07-23T08:30:41.322Z,66.59
2018-07-23T08:31:03.125Z,65.98
2018-07-23T08:34:32.879Z,67.66
2018-07-23T08:35:30.786Z,67.75
2018-07-23T08:37:32.656Z,68.40
2018-07-23T08:40:43.850Z,68.20
2018-07-23T08:47:21.527Z,64.95
2018-07-23T08:48:20.474Z,63.18
2018-07-23T08:49:42.484Z,62.44
2018-07-23T08:53:26.129Z,63.69
2018-07-23T08:54:25.617Z,64.47
2018-07-23T08:55:25.834Z,65.34
2018-07-23T08:56:25.614Z,65.63
2018-07-23T08:58:01.250Z,65.72
2018-07-23T08:58:27.084Z,65.05
2018-07-23T08:59:31.846Z,65.24
2018-07-23T09:01:26.141Z,61.76
2018-07-23T09:02:25.677Z,62.34
2018-07-23T09:03:26.027Z,62.66
2018-07-23T09:04:25.804Z,62.18
2018-07-23T09:05:26.154Z,62.56
2018-07-23T09:06:25.222Z,62.66
2018-07-23T09:07:40.698Z,62.47
2018-07-23T09:08:25.732Z,62.27
2018-07-23T09:09:26.143Z,62.18
2018-07-23T09:10:25.805Z,60.92
2018-07-23T09:11:28.013Z,59.86
2018-07-23T09:13:26.207Z,60.08
2018-07-23T09:14:27.604Z,60.17
2018-07-23T09:15:25.601Z,59.50
2018-07-23T09:16:25.298Z,59.89
2018-07-23T09:17:26.553Z,59.89
2018-07-23T09:18:26.001Z,59.69
2018-07-23T09:19:25.762Z,59.18
2018-07-23T09:20:28.123Z,59.21
2018-07-23T09:21:25.616Z,59.11
2018-07-23T09:22:26.296Z,59.21
2018-07-23T09:23:25.751Z,59.69
2018-07-23T09:24:27.697Z,59.79
2018-07-23T09:25:26.463Z,59.89
2018-07-23T09:26:25.671Z,59.98
2018-07-23T09:27:26.224Z,60.17
2018-07-23T09:28:25.303Z,59.89
2018-07-23T09:29:32.200Z,59.63
2018-07-23T09:30:26.176Z,59.23
2018-07-23T09:31:25.762Z,59.43
2018-07-23T09:32:26.115Z,59.43
2018-07-23T09:33:25.906Z,59.33
2018-07-23T09:34:26.191Z,60.57
2018-07-23T09:35:25.252Z,60.75
2018-07-23T09:36:26.319Z,61.36
2018-07-23T09:37:26.333Z,61.95
2018-07-23T09:38:25.827Z,61.92
2018-07-23T09:39:25.881Z,62.04
2018-07-23T09:40:27.095Z,61.76
2018-07-23T09:42:26.144Z,60.40
2018-07-23T09:43:26.163Z,60.69
2018-07-23T09:44:25.863Z,60.47
2018-07-23T09:45:25.560Z,60.50
2018-07-23T09:46:25.624Z,60.98
2018-07-23T09:47:25.623Z,61.56
2018-07-23T09:48:25.790Z,60.59
2018-07-23T09:49:25.843Z,60.59
2018-07-23T09:50:25.761Z,60.21
2018-07-23T09:51:26.235Z,59.72
2018-07-23T09:52:25.337Z,59.53
2018-07-23T09:53:32.139Z,59.17
2018-07-23T09:54:25.886Z,58.47
2018-07-23T09:55:26.129Z,58.11
2018-07-23T09:56:25.254Z,58.69
2018-07-23T09:57:25.771Z,58.01
2018-07-23T09:58:25.872Z,57.71
2018-07-23T09:59:25.747Z,57.14
2018-07-23T10:00:25.722Z,57.81
2018-07-23T10:01:26.140Z,57.91
2018-07-23T10:02:25.770Z,58.20
2018-07-23T10:03:25.425Z,58.85
2018-07-23T10:04:26.117Z,59.36
2018-07-23T10:05:26.140Z,59.27
2018-07-23T10:06:25.811Z,59.94
2018-07-23T10:09:10.046Z,60.62
2018-07-23T10:10:34.413Z,60.33
2018-07-23T10:13:46.262Z,59.66
2018-07-23T10:14:47.247Z,60.14
2018-07-23T10:16:41.562Z,59.78
2018-07-23T10:17:41.374Z,60.27
2018-07-23T10:18:41.578Z,59.97
2018-07-23T10:19:41.360Z,59.69
2018-07-23T10:20:41.878Z,59.30
2018-07-23T10:21:41.977Z,59.49
2018-07-23T10:22:41.577Z,59.39
2018-07-23T10:23:41.489Z,59.49
2018-07-23T10:24:41.883Z,59.03
2018-07-23T10:25:41.629Z,59.03
2018-07-23T10:26:41.932Z,59.33
2018-07-23T10:27:42.048Z,59.03
2018-07-23T10:28:41.880Z,59.23
2018-07-23T10:29:41.945Z,58.45
2018-07-23T10:30:41.643Z,58.67
2018-07-23T10:31:41.395Z,57.58
2018-07-23T10:32:41.834Z,57.39
2018-07-23T10:33:41.461Z,57.32
2018-07-23T10:34:41.416Z,56.35
2018-07-23T10:35:41.915Z,57.29
2018-07-23T10:36:42.401Z,58.36
2018-07-23T10:37:41.922Z,58.74
2018-07-23T10:38:42.176Z,58.36
2018-07-23T10:39:41.625Z,57.97
2018-07-23T10:40:41.913Z,57.78
2018-07-23T10:41:42.080Z,57.68
2018-07-23T10:42:41.920Z,57.39
2018-07-23T10:43:42.092Z,57.39
2018-07-23T10:44:42.127Z,57.78
2018-07-23T10:45:41.483Z,57.80
2018-07-23T10:47:01.750Z,56.25
2018-07-23T10:47:41.513Z,55.96
2018-07-23T10:48:41.381Z,56.25
2018-07-23T10:49:41.651Z,55.28
2018-07-23T10:50:41.374Z,55.99
2018-07-23T10:51:41.892Z,55.69
2018-07-23T10:52:41.888Z,56.28
2018-07-23T10:53:41.343Z,55.33
2018-07-23T10:54:41.409Z,55.24
2018-07-23T10:55:42.391Z,55.21
2018-07-23T10:56:41.987Z,55.89
2018-07-23T10:57:41.477Z,56.18
2018-07-23T10:58:41.971Z,55.79
2018-07-23T10:59:41.224Z,55.99
2018-07-23T11:00:42.097Z,55.60
2018-07-23T11:02:02.539Z,55.31
2018-07-23T11:02:41.590Z,55.69
2018-07-23T11:03:42.097Z,55.31
2018-07-23T11:04:41.530Z,55.43
2018-07-23T11:05:41.541Z,55.04
2018-07-23T11:06:41.996Z,54.36
2018-07-23T11:07:42.073Z,54.36
2018-07-23T11:08:41.608Z,53.69
2018-07-23T11:09:42.377Z,53.81
2018-07-23T11:10:42.113Z,53.52
2018-07-23T11:11:41.144Z,53.61
2018-07-23T11:14:15.106Z,53.42
2018-07-23T11:15:15.509Z,53.61
2018-07-23T11:17:15.882Z,52.64
2018-07-23T11:18:09.553Z,52.37
2018-07-23T11:20:04.801Z,51.60
2018-07-23T11:21:04.483Z,52.67
2018-07-23T11:22:04.350Z,52.86
2018-07-23T11:23:04.745Z,52.67
2018-07-23T11:24:04.886Z,52.09
2018-07-23T11:25:38.324Z,52.67
2018-07-23T11:26:04.410Z,52.40
2018-07-23T11:27:04.289Z,52.21
2018-07-23T11:29:04.263Z,51.79
2018-07-23T11:30:04.575Z,51.23
2018-07-23T11:31:04.617Z,51.31
2018-07-23T11:32:06.344Z,50.75
2018-07-23T11:33:04.290Z,51.33
2018-07-23T11:34:04.810Z,50.56
2018-07-23T11:35:04.415Z,50.75
2018-07-23T11:36:10.919Z,50.75
2018-07-23T11:38:37.696Z,49.97
2018-07-23T11:39:37.607Z,50.46
2018-07-23T11:41:32.553Z,50.95
2018-07-23T11:42:32.511Z,50.36
2018-07-23T11:44:27.048Z,50.29
2018-07-23T11:45:27.099Z,49.54
2018-07-23T11:47:21.494Z,48.39
2018-07-23T11:48:22.295Z,47.59
2018-07-23T11:50:16.705Z,47.20
2018-07-23T11:51:17.041Z,46.81
2018-07-23T11:52:16.730Z,46.93
2018-07-23T11:53:16.729Z,46.93
2018-07-23T11:54:16.040Z,46.08
2018-07-23T11:55:16.466Z,47.03
2018-07-23T11:56:16.995Z,47.03
2018-07-23T11:57:16.515Z,47.22
2018-07-23T11:58:16.993Z,47.15
2018-07-23T11:59:17.001Z,46.76
2018-07-23T12:00:16.105Z,47.15
2018-07-23T12:01:17.015Z,47.25
2018-07-23T12:02:17.011Z,47.73
2018-07-23T12:03:17.053Z,47.75
2018-07-23T12:04:16.994Z,47.83
2018-07-23T12:05:16.527Z,46.76
2018-07-23T12:06:17.052Z,47.25
2018-07-23T12:07:16.992Z,47.34
2018-07-23T12:08:16.680Z,47.07
2018-07-23T12:09:16.129Z,46.61
2018-07-23T12:10:17.022Z,46.12
2018-07-23T12:11:16.585Z,45.90
2018-07-23T12:12:17.084Z,46.00
2018-07-23T12:13:16.963Z,45.73
2018-07-23T12:14:17.005Z,46.00
2018-07-23T12:15:17.070Z,45.92
2018-07-23T12:16:16.581Z,45.44
2018-07-23T12:17:17.012Z,45.46
2018-07-23T12:18:16.435Z,45.26
2018-07-23T12:19:16.637Z,44.90
2018-07-23T12:20:16.490Z,44.90
2018-07-23T12:21:15.192Z,44.12
2018-07-23T12:22:16.452Z,44.63
2018-07-23T12:23:16.684Z,44.14
2018-07-23T12:24:16.921Z,43.75
2018-07-23T12:25:16.285Z,42.87
2018-07-23T12:26:16.505Z,42.30
2018-07-23T12:27:18.439Z,42.38
2018-07-23T12:28:17.002Z,42.50
2018-07-23T12:29:16.649Z,42.52
2018-07-23T12:30:16.559Z,42.29
2018-07-23T12:31:18.478Z,43.65
2018-07-23T12:32:16.574Z,42.69
2018-07-23T12:33:16.777Z,42.50
2018-07-23T12:34:17.677Z,42.22
2018-07-23T12:35:16.678Z,41.76
2018-07-23T12:36:16.720Z,42.32
2018-07-23T12:37:18.397Z,41.03
2018-07-23T12:38:17.491Z,42.21
2018-07-23T12:39:16.872Z,42.30
2018-07-23T12:40:17.189Z,40.76
2018-07-23T12:42:50.288Z,39.53
2018-07-23T12:43:51.983Z,40.23
2018-07-23T12:45:56.864Z,40.39
2018-07-23T12:46:45.450Z,41.29
2018-07-23T12:47:45.478Z,40.11
2018-07-23T12:48:45.355Z,39.27
2018-07-23T12:49:44.595Z,39.09
2018-07-23T12:50:45.284Z,38.60
2018-07-23T12:51:45.348Z,38.57
2018-07-23T12:52:45.156Z,39.37
2018-07-23T12:53:44.885Z,39.47
2018-07-23T12:54:45.014Z,38.98
2018-07-23T12:55:45.548Z,38.51
2018-07-23T12:56:44.979Z,37.94
2018-07-23T12:57:45.261Z,37.37
2018-07-23T12:58:44.926Z,36.91
2018-07-23T12:59:45.532Z,37.09
2018-07-23T13:00:45.090Z,37.29
2018-07-23T13:01:45.548Z,37.01
2018-07-23T13:02:45.702Z,35.95
2018-07-23T13:03:44.637Z,35.47
2018-07-23T13:04:45.867Z,35.18
2018-07-23T13:05:45.505Z,34.11
2018-07-23T13:06:46.552Z,33.36
2018-07-23T13:07:45.364Z,32.89
2018-07-23T13:08:45.866Z,32.51
2018-07-23T13:09:45.428Z,31.92
2018-07-23T13:10:45.910Z,32.79
2018-07-23T13:11:45.862Z,32.08
2018-07-23T13:12:45.120Z,31.44
2018-07-23T13:13:45.855Z,30.68
2018-07-23T13:14:45.393Z,31.23
2018-07-23T13:15:45.364Z,31.32
2018-07-23T13:16:45.800Z,31.07
2018-07-23T13:17:45.523Z,29.23
2018-07-23T13:18:46.131Z,28.86
2018-07-23T13:19:45.512Z,28.49
2018-07-23T13:20:46.005Z,27.81
2018-07-23T13:21:45.969Z,27.62
2018-07-23T13:22:46.089Z,27.23
2018-07-23T13:23:46.092Z,27.01
2018-07-23T13:24:45.894Z,27.03
2018-07-23T13:25:44.105Z,25.77
2018-07-23T13:26:46.076Z,25.57
2018-07-23T13:27:45.588Z,25.39
2018-07-23T13:28:46.134Z,25.48
2018-07-23T13:29:45.958Z,25.87
2018-07-23T13:30:46.026Z,24.60
2018-07-23T13:31:47.023Z,25.08
2018-07-23T13:32:45.896Z,24.21
2018-07-23T13:34:00.570Z,24.99
2018-07-23T13:34:51.932Z,24.73
2018-07-23T13:37:19.344Z,25.96
2018-07-23T13:40:33.807Z,25.66
2018-07-23T13:42:50.091Z,24.12
2018-07-23T13:43:28.746Z,23.15
2018-07-23T13:45:23.043Z,22.47
2018-07-23T13:46:23.874Z,22.09
2018-07-23T13:48:18.252Z,21.50
2018-07-23T13:49:18.178Z,25.05
2018-07-23T13:51:12.684Z,26.74
2018-07-23T13:52:12.531Z,24.53
2018-07-23T13:54:08.029Z,22.88
2018-07-23T13:55:07.489Z,21.60
2018-07-23T13:57:02.345Z,22.75
2018-07-23T13:58:02.902Z,21.69
2018-07-23T13:59:57.173Z,21.51
2018-07-23T14:00:57.229Z,20.35
2018-07-23T14:02:51.907Z,19.18
2018-07-23T14:05:06.474Z,19.16
2018-07-23T14:06:06.823Z,19.08
2018-07-23T14:08:00.805Z,18.77
2018-07-23T14:09:03.007Z,19.46
2018-07-23T14:11:35.157Z,19.93
2018-07-23T14:12:34.332Z,20.62
2018-07-23T14:14:28.695Z,20.71
2018-07-23T14:15:29.439Z,21.30
2018-07-23T14:18:58.734Z,20.61
2018-07-23T14:20:24.567Z,19.94
2018-07-23T14:20:56.890Z,19.63
2018-07-23T14:21:57.787Z,20.42
2018-07-23T14:23:16.274Z,20.51
2018-07-23T14:23:57.591Z,21.75
2018-07-23T14:25:04.391Z,22.16
2018-07-23T14:25:56.861Z,20.98
2018-07-23T14:26:57.691Z,20.22
2018-07-23T14:27:56.622Z,20.32
2018-07-23T14:28:57.794Z,20.30
2018-07-23T14:29:57.036Z,20.32
2018-07-23T14:30:59.691Z,20.97
2018-07-23T14:31:57.548Z,21.20
2018-07-23T14:32:57.837Z,21.30
2018-07-23T14:33:58.070Z,21.11
2018-07-23T14:35:23.825Z,21.88
2018-07-23T14:35:56.148Z,21.39
2018-07-23T14:36:56.145Z,20.90
2018-07-23T14:37:56.080Z,21.67
2018-07-23T14:38:56.152Z,21.68
2018-07-23T14:40:00.280Z,21.39
2018-07-23T14:40:56.134Z,21.41
2018-07-23T14:41:56.172Z,21.00
2018-07-23T14:42:56.179Z,22.44
2018-07-23T14:43:56.225Z,23.69
2018-07-23T14:44:56.212Z,24.85
2018-07-23T14:45:56.259Z,23.71
2018-07-23T14:46:56.251Z,22.64
2018-07-23T14:47:56.278Z,23.79
2018-07-23T14:48:58.337Z,25.03
2018-07-23T14:49:56.310Z,26.96
2018-07-23T14:50:56.332Z,27.45
2018-07-23T14:53:48.134Z,26.28
2018-07-23T14:54:29.836Z,25.81
2018-07-23T14:56:24.059Z,25.51
2018-07-23T14:58:38.726Z,27.53
2018-07-23T14:59:38.803Z,27.93
2018-07-23T15:02:12.338Z,26.12
2018-07-23T15:02:32.976Z,24.96
2018-07-23T15:04:27.670Z,23.97
2018-07-23T15:05:27.680Z,24.35
2018-07-23T15:07:22.549Z,26.31
2018-07-23T15:08:22.563Z,25.04
2018-07-23T15:12:00.879Z,25.23
2018-07-23T15:12:50.599Z,25.50
2018-07-23T15:14:46.480Z,27.24
2018-07-23T15:17:01.410Z,27.06
2018-07-23T15:21:00.863Z,26.26